sensor_id;sensor_type;location;lat;lon;timestamp;P1;durP1;ratioP1;P2;durP2;ratioP2
22172;SDS011;11252;50.596;17.648;2023-02-12T00:01:17;39.27;;;24.17;;
22172;SDS011;11252;50.596;17.648;2023-02-12T00:03:45;35.87;;;21.77;;
22172;SDS011;11252;50.596;17.648;2023-02-12T00:06:13;33.27;;;23.43;;
22172;SDS011;11252;50.596;17.648;2023-02-12T00:08:41;35.47;;;24.20;;
22172;SDS011;11252;50.596;17.648;2023-02-12T00:11:10;34.73;;;23.43;;
22172;SDS011;11252;50.596;17.648;2023-02-12T00:13:39;33.57;;;23.10;;
22172;SDS011;11252;50.596;17.648;2023-02-12T00:16:08;33.53;;;23.60;;
22172;SDS011;11252;50.596;17.648;2023-02-12T00:18:39;36.70;;;22.93;;
22172;SDS011;11252;50.596;17.648;2023-02-12T00:21:06;37.10;;;23.43;;
22172;SDS011;11252;50.596;17.648;2023-02-12T00:23:37;34.57;;;22.93;;
22172;SDS011;11252;50.596;17.648;2023-02-12T00:26:07;35.27;;;22.93;;
22172;SDS011;11252;50.596;17.648;2023-02-12T00:28:42;37.77;;;23.23;;
22172;SDS011;11252;50.596;17.648;2023-02-12T00:31:12;35.23;;;22.93;;
22172;SDS011;11252;50.596;17.648;2023-02-12T00:33:41;35.73;;;23.10;;
22172;SDS011;11252;50.596;17.648;2023-02-12T00:36:09;36.43;;;22.60;;
22172;SDS011;11252;50.596;17.648;2023-02-12T00:38:39;36.30;;;22.67;;
22172;SDS011;11252;50.596;17.648;2023-02-12T00:41:07;36.90;;;24.20;;
22172;SDS011;11252;50.596;17.648;2023-02-12T00:43:34;34.43;;;20.27;;
22172;SDS011;11252;50.596;17.648;2023-02-12T00:46:01;41.03;;;23.40;;
22172;SDS011;11252;50.596;17.648;2023-02-12T00:48:30;33.57;;;22.77;;
22172;SDS011;11252;50.596;17.648;2023-02-12T00:50:59;38.93;;;22.90;;
22172;SDS011;11252;50.596;17.648;2023-02-12T00:53:26;33.17;;;21.00;;
22172;SDS011;11252;50.596;17.648;2023-02-12T00:55:54;35.17;;;19.97;;
22172;SDS011;11252;50.596;17.648;2023-02-12T00:58:22;37.07;;;24.10;;
22172;SDS011;11252;50.596;17.648;2023-02-12T01:00:50;37.53;;;24.33;;
22172;SDS011;11252;50.596;17.648;2023-02-12T01:03:17;41.90;;;23.77;;
22172;SDS011;11252;50.596;17.648;2023-02-12T01:05:44;45.07;;;26.33;;
22172;SDS011;11252;50.596;17.648;2023-02-12T01:08:13;36.70;;;23.50;;
22172;SDS011;11252;50.596;17.648;2023-02-12T01:10:41;42.00;;;24.73;;
22172;SDS011;11252;50.596;17.648;2023-02-12T01:13:13;40.73;;;22.93;;
22172;SDS011;11252;50.596;17.648;2023-02-12T01:15:41;43.77;;;25.63;;
22172;SDS011;11252;50.596;17.648;2023-02-12T01:18:08;36.47;;;23.90;;
22172;SDS011;11252;50.596;17.648;2023-02-12T01:20:38;47.37;;;26.63;;
22172;SDS011;11252;50.596;17.648;2023-02-12T01:23:05;43.33;;;25.80;;
22172;SDS011;11252;50.596;17.648;2023-02-12T01:25:33;37.57;;;23.67;;
22172;SDS011;11252;50.596;17.648;2023-02-12T01:28:01;41.97;;;25.43;;
22172;SDS011;11252;50.596;17.648;2023-02-12T01:30:28;43.00;;;24.50;;
22172;SDS011;11252;50.596;17.648;2023-02-12T01:32:55;39.93;;;25.27;;
22172;SDS011;11252;50.596;17.648;2023-02-12T01:35:23;43.17;;;24.83;;
22172;SDS011;11252;50.596;17.648;2023-02-12T01:37:50;42.93;;;23.90;;
22172;SDS011;11252;50.596;17.648;2023-02-12T01:40:17;42.70;;;25.80;;
22172;SDS011;11252;50.596;17.648;2023-02-12T01:42:45;38.97;;;23.87;;
22172;SDS011;11252;50.596;17.648;2023-02-12T01:47:40;42.67;;;25.03;;
22172;SDS011;11252;50.596;17.648;2023-02-12T01:50:10;45.83;;;24.67;;
22172;SDS011;11252;50.596;17.648;2023-02-12T01:52:42;46.67;;;25.10;;
22172;SDS011;11252;50.596;17.648;2023-02-12T01:55:13;48.33;;;26.67;;
22172;SDS011;11252;50.596;17.648;2023-02-12T01:57:42;46.23;;;25.43;;
22172;SDS011;11252;50.596;17.648;2023-02-12T02:00:13;41.83;;;25.20;;
22172;SDS011;11252;50.596;17.648;2023-02-12T02:02:53;44.57;;;27.37;;
22172;SDS011;11252;50.596;17.648;2023-02-12T02:05:25;43.63;;;26.13;;
22172;SDS011;11252;50.596;17.648;2023-02-12T02:07:59;49.87;;;26.27;;
22172;SDS011;11252;50.596;17.648;2023-02-12T02:10:28;43.47;;;26.60;;
22172;SDS011;11252;50.596;17.648;2023-02-12T02:12:56;40.10;;;24.57;;
22172;SDS011;11252;50.596;17.648;2023-02-12T02:15:43;48.07;;;27.53;;
22172;SDS011;11252;50.596;17.648;2023-02-12T02:33:12;49.07;;;28.17;;
22172;SDS011;11252;50.596;17.648;2023-02-12T02:35:50;46.87;;;29.07;;
22172;SDS011;11252;50.596;17.648;2023-02-12T02:38:37;51.77;;;28.10;;
22172;SDS011;11252;50.596;17.648;2023-02-12T02:41:34;50.73;;;29.07;;
22172;SDS011;11252;50.596;17.648;2023-02-12T02:44:15;55.40;;;29.60;;
22172;SDS011;11252;50.596;17.648;2023-02-12T02:46:48;54.80;;;30.67;;
22172;SDS011;11252;50.596;17.648;2023-02-12T02:49:21;54.00;;;29.83;;
22172;SDS011;11252;50.596;17.648;2023-02-12T02:51:59;53.17;;;31.37;;
22172;SDS011;11252;50.596;17.648;2023-02-12T02:54:38;51.90;;;29.30;;
22172;SDS011;11252;50.596;17.648;2023-02-12T02:57:29;58.67;;;31.83;;
22172;SDS011;11252;50.596;17.648;2023-02-12T03:00:04;54.67;;;30.43;;
22172;SDS011;11252;50.596;17.648;2023-02-12T03:02:39;57.27;;;29.70;;
22172;SDS011;11252;50.596;17.648;2023-02-12T03:05:13;57.50;;;30.80;;
22172;SDS011;11252;50.596;17.648;2023-02-12T03:07:51;56.97;;;29.57;;
22172;SDS011;11252;50.596;17.648;2023-02-12T03:10:30;49.43;;;29.27;;
22172;SDS011;11252;50.596;17.648;2023-02-12T03:13:12;50.10;;;29.80;;
22172;SDS011;11252;50.596;17.648;2023-02-12T03:18:49;56.47;;;30.80;;
22172;SDS011;11252;50.596;17.648;2023-02-12T03:21:29;54.77;;;29.77;;
22172;SDS011;11252;50.596;17.648;2023-02-12T03:24:11;56.90;;;31.67;;
22172;SDS011;11252;50.596;17.648;2023-02-12T03:27:30;56.90;;;31.53;;
22172;SDS011;11252;50.596;17.648;2023-02-12T03:29:34;55.67;;;29.53;;
22172;SDS011;11252;50.596;17.648;2023-02-12T03:32:15;50.67;;;30.40;;
22172;SDS011;11252;50.596;17.648;2023-02-12T03:34:54;50.73;;;29.67;;
22172;SDS011;11252;50.596;17.648;2023-02-12T03:37:29;60.07;;;30.30;;
22172;SDS011;11252;50.596;17.648;2023-02-12T03:40:15;54.70;;;28.13;;
22172;SDS011;11252;50.596;17.648;2023-02-12T03:50:58;51.57;;;28.57;;
22172;SDS011;11252;50.596;17.648;2023-02-12T03:53:41;52.27;;;29.20;;
22172;SDS011;11252;50.596;17.648;2023-02-12T03:56:14;52.07;;;27.60;;
22172;SDS011;11252;50.596;17.648;2023-02-12T03:58:46;59.20;;;29.23;;
22172;SDS011;11252;50.596;17.648;2023-02-12T04:01:13;53.50;;;29.23;;
22172;SDS011;11252;50.596;17.648;2023-02-12T04:03:41;53.33;;;29.27;;
22172;SDS011;11252;50.596;17.648;2023-02-12T04:06:29;52.47;;;29.97;;
22172;SDS011;11252;50.596;17.648;2023-02-12T04:08:58;47.93;;;29.23;;
22172;SDS011;11252;50.596;17.648;2023-02-12T04:14:26;56.13;;;29.80;;
22172;SDS011;11252;50.596;17.648;2023-02-12T04:19:49;55.67;;;28.47;;
22172;SDS011;11252;50.596;17.648;2023-02-12T04:22:36;55.53;;;31.37;;
22172;SDS011;11252;50.596;17.648;2023-02-12T04:25:30;49.93;;;27.67;;
22172;SDS011;11252;50.596;17.648;2023-02-12T04:28:24;55.03;;;27.47;;
22172;SDS011;11252;50.596;17.648;2023-02-12T04:31:11;55.87;;;28.43;;
22172;SDS011;11252;50.596;17.648;2023-02-12T04:33:56;45.93;;;27.13;;
22172;SDS011;11252;50.596;17.648;2023-02-12T04:36:34;51.13;;;27.83;;
22172;SDS011;11252;50.596;17.648;2023-02-12T04:39:08;52.80;;;27.83;;
22172;SDS011;11252;50.596;17.648;2023-02-12T04:41:40;53.90;;;26.73;;
22172;SDS011;11252;50.596;17.648;2023-02-12T04:47:05;53.13;;;28.07;;
22172;SDS011;11252;50.596;17.648;2023-02-12T04:49:32;48.60;;;25.77;;
22172;SDS011;11252;50.596;17.648;2023-02-12T04:52:00;56.57;;;28.93;;
22172;SDS011;11252;50.596;17.648;2023-02-12T04:54:27;59.80;;;28.47;;
22172;SDS011;11252;50.596;17.648;2023-02-12T04:56:54;60.90;;;29.20;;
22172;SDS011;11252;50.596;17.648;2023-02-12T04:59:21;55.83;;;29.67;;
22172;SDS011;11252;50.596;17.648;2023-02-12T05:01:49;61.90;;;30.67;;
22172;SDS011;11252;50.596;17.648;2023-02-12T05:04:16;64.50;;;29.03;;
22172;SDS011;11252;50.596;17.648;2023-02-12T05:06:44;58.17;;;28.90;;
22172;SDS011;11252;50.596;17.648;2023-02-12T05:09:12;67.67;;;28.60;;
22172;SDS011;11252;50.596;17.648;2023-02-12T05:11:41;54.97;;;28.03;;
22172;SDS011;11252;50.596;17.648;2023-02-12T05:14:09;61.53;;;30.33;;
22172;SDS011;11252;50.596;17.648;2023-02-12T05:16:36;60.70;;;28.43;;
22172;SDS011;11252;50.596;17.648;2023-02-12T05:19:04;53.97;;;28.40;;
22172;SDS011;11252;50.596;17.648;2023-02-12T05:21:31;64.27;;;29.53;;
22172;SDS011;11252;50.596;17.648;2023-02-12T05:24:00;63.13;;;28.40;;
22172;SDS011;11252;50.596;17.648;2023-02-12T05:26:28;62.67;;;29.13;;
22172;SDS011;11252;50.596;17.648;2023-02-12T05:28:56;66.17;;;28.93;;
22172;SDS011;11252;50.596;17.648;2023-02-12T05:31:23;59.67;;;29.63;;
22172;SDS011;11252;50.596;17.648;2023-02-12T05:33:50;66.07;;;30.87;;
22172;SDS011;11252;50.596;17.648;2023-02-12T05:36:19;63.37;;;30.03;;
22172;SDS011;11252;50.596;17.648;2023-02-12T05:38:48;69.07;;;29.37;;
22172;SDS011;11252;50.596;17.648;2023-02-12T05:41:18;68.40;;;30.07;;
22172;SDS011;11252;50.596;17.648;2023-02-12T05:43:50;71.73;;;30.47;;
22172;SDS011;11252;50.596;17.648;2023-02-12T05:46:18;59.33;;;27.53;;
22172;SDS011;11252;50.596;17.648;2023-02-12T05:48:47;62.43;;;28.10;;
22172;SDS011;11252;50.596;17.648;2023-02-12T05:51:16;63.97;;;29.67;;
22172;SDS011;11252;50.596;17.648;2023-02-12T05:53:47;65.80;;;28.80;;
22172;SDS011;11252;50.596;17.648;2023-02-12T05:56:20;57.07;;;27.00;;
22172;SDS011;11252;50.596;17.648;2023-02-12T05:58:53;53.83;;;25.30;;
22172;SDS011;11252;50.596;17.648;2023-02-12T06:01:31;54.47;;;24.63;;
22172;SDS011;11252;50.596;17.648;2023-02-12T06:04:01;57.80;;;26.80;;
22172;SDS011;11252;50.596;17.648;2023-02-12T06:06:31;63.80;;;29.47;;
22172;SDS011;11252;50.596;17.648;2023-02-12T06:08:58;55.60;;;26.80;;
22172;SDS011;11252;50.596;17.648;2023-02-12T06:11:26;51.83;;;25.77;;
22172;SDS011;11252;50.596;17.648;2023-02-12T06:13:54;56.03;;;25.40;;
22172;SDS011;11252;50.596;17.648;2023-02-12T06:16:25;62.07;;;27.53;;
22172;SDS011;11252;50.596;17.648;2023-02-12T06:18:54;62.50;;;27.43;;
22172;SDS011;11252;50.596;17.648;2023-02-12T06:21:23;58.57;;;27.50;;
22172;SDS011;11252;50.596;17.648;2023-02-12T06:23:51;63.90;;;27.67;;
22172;SDS011;11252;50.596;17.648;2023-02-12T06:26:21;63.20;;;27.80;;
22172;SDS011;11252;50.596;17.648;2023-02-12T06:28:49;70.77;;;28.53;;
22172;SDS011;11252;50.596;17.648;2023-02-12T06:31:19;69.77;;;28.10;;
22172;SDS011;11252;50.596;17.648;2023-02-12T06:33:52;72.67;;;27.90;;
22172;SDS011;11252;50.596;17.648;2023-02-12T06:36:21;74.33;;;28.13;;
22172;SDS011;11252;50.596;17.648;2023-02-12T06:38:48;72.03;;;31.73;;
22172;SDS011;11252;50.596;17.648;2023-02-12T06:41:16;79.73;;;29.23;;
22172;SDS011;11252;50.596;17.648;2023-02-12T06:43:44;61.60;;;28.70;;
22172;SDS011;11252;50.596;17.648;2023-02-12T06:46:12;82.90;;;29.30;;
22172;SDS011;11252;50.596;17.648;2023-02-12T06:48:39;84.73;;;29.73;;
22172;SDS011;11252;50.596;17.648;2023-02-12T06:51:08;68.90;;;28.37;;
22172;SDS011;11252;50.596;17.648;2023-02-12T06:53:42;78.40;;;31.20;;
22172;SDS011;11252;50.596;17.648;2023-02-12T06:56:13;92.30;;;32.47;;
22172;SDS011;11252;50.596;17.648;2023-02-12T06:58:41;78.17;;;31.70;;
22172;SDS011;11252;50.596;17.648;2023-02-12T07:01:13;98.17;;;34.33;;
22172;SDS011;11252;50.596;17.648;2023-02-12T07:03:47;95.90;;;32.97;;
22172;SDS011;11252;50.596;17.648;2023-02-12T07:06:16;76.93;;;31.07;;
22172;SDS011;11252;50.596;17.648;2023-02-12T07:08:44;85.60;;;30.27;;
22172;SDS011;11252;50.596;17.648;2023-02-12T07:11:11;82.90;;;29.73;;
22172;SDS011;11252;50.596;17.648;2023-02-12T07:13:39;93.73;;;31.10;;
22172;SDS011;11252;50.596;17.648;2023-02-12T07:16:08;68.87;;;29.03;;
22172;SDS011;11252;50.596;17.648;2023-02-12T07:18:38;78.50;;;28.97;;
22172;SDS011;11252;50.596;17.648;2023-02-12T07:21:06;81.60;;;28.80;;
22172;SDS011;11252;50.596;17.648;2023-02-12T07:23:34;84.50;;;31.47;;
22172;SDS011;11252;50.596;17.648;2023-02-12T07:26:04;80.87;;;29.83;;
22172;SDS011;11252;50.596;17.648;2023-02-12T07:28:33;86.33;;;31.60;;
22172;SDS011;11252;50.596;17.648;2023-02-12T07:31:17;84.87;;;29.50;;
22172;SDS011;11252;50.596;17.648;2023-02-12T07:33:47;83.70;;;29.33;;
22172;SDS011;11252;50.596;17.648;2023-02-12T07:36:15;86.17;;;32.83;;
22172;SDS011;11252;50.596;17.648;2023-02-12T07:38:44;79.43;;;29.40;;
22172;SDS011;11252;50.596;17.648;2023-02-12T07:41:12;79.07;;;31.37;;
22172;SDS011;11252;50.596;17.648;2023-02-12T07:43:42;87.57;;;31.53;;
22172;SDS011;11252;50.596;17.648;2023-02-12T07:46:22;69.80;;;29.50;;
22172;SDS011;11252;50.596;17.648;2023-02-12T07:48:57;68.33;;;29.23;;
22172;SDS011;11252;50.596;17.648;2023-02-12T07:51:26;65.93;;;27.10;;
22172;SDS011;11252;50.596;17.648;2023-02-12T07:53:53;72.40;;;28.97;;
22172;SDS011;11252;50.596;17.648;2023-02-12T07:56:25;63.27;;;26.73;;
22172;SDS011;11252;50.596;17.648;2023-02-12T07:59:00;63.60;;;25.60;;
22172;SDS011;11252;50.596;17.648;2023-02-12T08:01:39;59.63;;;26.60;;
22172;SDS011;11252;50.596;17.648;2023-02-12T08:04:09;53.90;;;25.47;;
22172;SDS011;11252;50.596;17.648;2023-02-12T08:06:42;54.07;;;25.23;;
22172;SDS011;11252;50.596;17.648;2023-02-12T08:09:16;54.63;;;25.47;;
22172;SDS011;11252;50.596;17.648;2023-02-12T08:11:46;48.57;;;22.70;;
22172;SDS011;11252;50.596;17.648;2023-02-12T08:14:15;53.00;;;24.87;;
22172;SDS011;11252;50.596;17.648;2023-02-12T08:16:44;63.47;;;25.90;;
22172;SDS011;11252;50.596;17.648;2023-02-12T08:19:13;55.77;;;24.20;;
22172;SDS011;11252;50.596;17.648;2023-02-12T08:21:48;54.47;;;25.23;;
22172;SDS011;11252;50.596;17.648;2023-02-12T08:24:20;52.23;;;24.67;;
22172;SDS011;11252;50.596;17.648;2023-02-12T08:26:50;49.77;;;25.03;;
22172;SDS011;11252;50.596;17.648;2023-02-12T08:29:19;53.43;;;23.57;;
22172;SDS011;11252;50.596;17.648;2023-02-12T08:31:58;62.53;;;22.87;;
22172;SDS011;11252;50.596;17.648;2023-02-12T08:34:32;51.67;;;24.07;;
22172;SDS011;11252;50.596;17.648;2023-02-12T08:37:00;52.87;;;24.23;;
22172;SDS011;11252;50.596;17.648;2023-02-12T08:39:32;50.63;;;23.97;;
22172;SDS011;11252;50.596;17.648;2023-02-12T08:41:59;57.53;;;23.67;;
22172;SDS011;11252;50.596;17.648;2023-02-12T08:44:27;49.03;;;22.47;;
22172;SDS011;11252;50.596;17.648;2023-02-12T08:46:55;44.03;;;23.73;;
22172;SDS011;11252;50.596;17.648;2023-02-12T08:49:23;44.83;;;22.33;;
22172;SDS011;11252;50.596;17.648;2023-02-12T08:51:54;46.00;;;22.97;;
22172;SDS011;11252;50.596;17.648;2023-02-12T08:54:23;60.50;;;23.40;;
22172;SDS011;11252;50.596;17.648;2023-02-12T08:56:53;46.93;;;22.87;;
22172;SDS011;11252;50.596;17.648;2023-02-12T08:59:22;50.33;;;25.37;;
22172;SDS011;11252;50.596;17.648;2023-02-12T09:01:50;46.27;;;21.23;;
22172;SDS011;11252;50.596;17.648;2023-02-12T09:04:19;44.67;;;23.40;;
22172;SDS011;11252;50.596;17.648;2023-02-12T09:06:48;49.53;;;21.63;;
22172;SDS011;11252;50.596;17.648;2023-02-12T09:09:16;42.57;;;20.63;;
22172;SDS011;11252;50.596;17.648;2023-02-12T09:11:45;48.63;;;23.00;;
22172;SDS011;11252;50.596;17.648;2023-02-12T09:14:14;41.80;;;22.17;;
22172;SDS011;11252;50.596;17.648;2023-02-12T09:16:42;45.87;;;22.40;;
22172;SDS011;11252;50.596;17.648;2023-02-12T09:19:10;53.07;;;22.57;;
22172;SDS011;11252;50.596;17.648;2023-02-12T09:21:39;46.07;;;22.30;;
22172;SDS011;11252;50.596;17.648;2023-02-12T09:24:07;56.83;;;23.10;;
22172;SDS011;11252;50.596;17.648;2023-02-12T09:26:35;51.37;;;26.00;;
22172;SDS011;11252;50.596;17.648;2023-02-12T09:29:04;51.73;;;29.03;;
22172;SDS011;11252;50.596;17.648;2023-02-12T09:31:32;42.63;;;22.37;;
22172;SDS011;11252;50.596;17.648;2023-02-12T09:34:00;57.60;;;33.03;;
22172;SDS011;11252;50.596;17.648;2023-02-12T09:36:30;48.13;;;20.93;;
22172;SDS011;11252;50.596;17.648;2023-02-12T09:38:58;47.47;;;20.33;;
22172;SDS011;11252;50.596;17.648;2023-02-12T09:44:02;38.90;;;18.97;;
22172;SDS011;11252;50.596;17.648;2023-02-12T09:52:21;38.43;;;19.47;;
22172;SDS011;11252;50.596;17.648;2023-02-12T09:54:52;41.23;;;21.17;;
22172;SDS011;11252;50.596;17.648;2023-02-12T09:57:32;43.60;;;19.37;;
22172;SDS011;11252;50.596;17.648;2023-02-12T10:00:14;43.43;;;18.77;;
22172;SDS011;11252;50.596;17.648;2023-02-12T10:02:46;44.27;;;19.40;;
22172;SDS011;11252;50.596;17.648;2023-02-12T10:05:19;43.83;;;19.73;;
22172;SDS011;11252;50.596;17.648;2023-02-12T10:11:12;39.57;;;18.60;;
22172;SDS011;11252;50.596;17.648;2023-02-12T10:25:02;40.57;;;21.43;;
22172;SDS011;11252;50.596;17.648;2023-02-12T10:27:55;44.10;;;22.53;;
22172;SDS011;11252;50.596;17.648;2023-02-12T10:30:32;42.80;;;21.53;;
22172;SDS011;11252;50.596;17.648;2023-02-12T10:33:31;45.43;;;24.03;;
22172;SDS011;11252;50.596;17.648;2023-02-12T10:41:46;40.00;;;21.00;;
22172;SDS011;11252;50.596;17.648;2023-02-12T10:44:22;45.63;;;23.10;;
22172;SDS011;11252;50.596;17.648;2023-02-12T10:46:49;54.07;;;25.73;;
22172;SDS011;11252;50.596;17.648;2023-02-12T10:49:17;41.97;;;23.50;;
22172;SDS011;11252;50.596;17.648;2023-02-12T10:54:36;42.23;;;21.73;;
22172;SDS011;11252;50.596;17.648;2023-02-12T10:59:46;45.87;;;22.73;;
22172;SDS011;11252;50.596;17.648;2023-02-12T11:02:21;37.33;;;20.60;;
22172;SDS011;11252;50.596;17.648;2023-02-12T11:04:57;52.00;;;24.77;;
22172;SDS011;11252;50.596;17.648;2023-02-12T11:07:27;40.33;;;22.43;;
22172;SDS011;11252;50.596;17.648;2023-02-12T11:09:55;38.50;;;20.30;;
22172;SDS011;11252;50.596;17.648;2023-02-12T11:14:59;39.60;;;19.43;;
22172;SDS011;11252;50.596;17.648;2023-02-12T11:17:40;33.77;;;16.53;;
22172;SDS011;11252;50.596;17.648;2023-02-12T11:22:58;30.73;;;14.77;;
22172;SDS011;11252;50.596;17.648;2023-02-12T11:25:29;33.17;;;15.57;;
22172;SDS011;11252;50.596;17.648;2023-02-12T11:28:00;34.13;;;17.10;;
22172;SDS011;11252;50.596;17.648;2023-02-12T11:30:28;35.03;;;16.17;;
22172;SDS011;11252;50.596;17.648;2023-02-12T11:33:15;32.13;;;17.50;;
22172;SDS011;11252;50.596;17.648;2023-02-12T11:38:33;31.77;;;19.47;;
22172;SDS011;11252;50.596;17.648;2023-02-12T11:41:06;31.67;;;16.10;;
22172;SDS011;11252;50.596;17.648;2023-02-12T11:43:47;27.43;;;16.13;;
22172;SDS011;11252;50.596;17.648;2023-02-12T11:46:23;33.27;;;16.70;;
22172;SDS011;11252;50.596;17.648;2023-02-12T11:48:52;28.10;;;16.43;;
22172;SDS011;11252;50.596;17.648;2023-02-12T11:51:26;28.67;;;15.73;;
22172;SDS011;11252;50.596;17.648;2023-02-12T11:53:59;35.37;;;16.53;;
22172;SDS011;11252;50.596;17.648;2023-02-12T11:56:39;30.50;;;15.73;;
22172;SDS011;11252;50.596;17.648;2023-02-12T11:59:17;33.13;;;15.13;;
22172;SDS011;11252;50.596;17.648;2023-02-12T12:01:54;34.73;;;16.53;;
22172;SDS011;11252;50.596;17.648;2023-02-12T12:04:31;28.43;;;15.17;;
22172;SDS011;11252;50.596;17.648;2023-02-12T12:07:05;30.80;;;16.60;;
22172;SDS011;11252;50.596;17.648;2023-02-12T12:12:35;29.17;;;16.77;;
22172;SDS011;11252;50.596;17.648;2023-02-12T12:21:56;31.13;;;17.23;;
22172;SDS011;11252;50.596;17.648;2023-02-12T12:24:51;31.77;;;18.47;;
22172;SDS011;11252;50.596;17.648;2023-02-12T12:53:11;36.43;;;17.07;;
22172;SDS011;11252;50.596;17.648;2023-02-12T13:02:04;36.77;;;19.93;;
22172;SDS011;11252;50.596;17.648;2023-02-12T13:07:04;32.40;;;16.90;;
22172;SDS011;11252;50.596;17.648;2023-02-12T13:10:02;33.27;;;16.20;;
22172;SDS011;11252;50.596;17.648;2023-02-12T13:15:17;34.23;;;17.40;;
22172;SDS011;11252;50.596;17.648;2023-02-12T13:18:14;30.50;;;16.13;;
22172;SDS011;11252;50.596;17.648;2023-02-12T13:29:52;29.57;;;14.80;;
22172;SDS011;11252;50.596;17.648;2023-02-12T13:32:40;22.70;;;12.87;;
22172;SDS011;11252;50.596;17.648;2023-02-12T13:35:27;27.30;;;13.47;;
22172;SDS011;11252;50.596;17.648;2023-02-12T13:37:57;30.23;;;13.83;;
22172;SDS011;11252;50.596;17.648;2023-02-12T13:40:27;26.53;;;12.20;;
22172;SDS011;11252;50.596;17.648;2023-02-12T13:51:32;25.73;;;13.53;;
22172;SDS011;11252;50.596;17.648;2023-02-12T13:56:58;28.77;;;14.87;;
22172;SDS011;11252;50.596;17.648;2023-02-12T14:01:58;26.13;;;15.03;;
22172;SDS011;11252;50.596;17.648;2023-02-12T14:09:45;29.17;;;15.67;;
22172;SDS011;11252;50.596;17.648;2023-02-12T14:14:50;26.27;;;13.47;;
22172;SDS011;11252;50.596;17.648;2023-02-12T14:19:56;27.77;;;13.30;;
22172;SDS011;11252;50.596;17.648;2023-02-12T14:27:46;42.33;;;24.73;;
22172;SDS011;11252;50.596;17.648;2023-02-12T14:40:46;33.50;;;15.33;;
22172;SDS011;11252;50.596;17.648;2023-02-12T14:43:25;25.33;;;15.07;;
22172;SDS011;11252;50.596;17.648;2023-02-12T14:49:00;26.37;;;15.43;;
22172;SDS011;11252;50.596;17.648;2023-02-12T14:51:52;30.50;;;16.07;;
22172;SDS011;11252;50.596;17.648;2023-02-12T14:54:26;33.43;;;16.37;;
22172;SDS011;11252;50.596;17.648;2023-02-12T14:56:54;32.07;;;14.93;;
22172;SDS011;11252;50.596;17.648;2023-02-12T14:59:24;34.80;;;20.77;;
22172;SDS011;11252;50.596;17.648;2023-02-12T15:01:52;36.07;;;22.17;;
22172;SDS011;11252;50.596;17.648;2023-02-12T15:04:24;49.60;;;31.63;;
22172;SDS011;11252;50.596;17.648;2023-02-12T15:07:00;48.00;;;30.57;;
22172;SDS011;11252;50.596;17.648;2023-02-12T15:10:07;76.97;;;43.27;;
22172;SDS011;11252;50.596;17.648;2023-02-12T15:12:40;68.80;;;38.63;;
22172;SDS011;11252;50.596;17.648;2023-02-12T15:15:38;154.97;;;76.53;;
22172;SDS011;11252;50.596;17.648;2023-02-12T15:20:50;134.73;;;67.63;;
22172;SDS011;11252;50.596;17.648;2023-02-12T15:26:18;112.53;;;62.20;;
22172;SDS011;11252;50.596;17.648;2023-02-12T15:28:49;139.90;;;66.00;;
22172;SDS011;11252;50.596;17.648;2023-02-12T15:31:20;102.43;;;53.70;;
22172;SDS011;11252;50.596;17.648;2023-02-12T15:33:53;99.43;;;53.67;;
22172;SDS011;11252;50.596;17.648;2023-02-12T15:36:23;161.83;;;91.43;;
22172;SDS011;11252;50.596;17.648;2023-02-12T15:38:55;169.70;;;92.00;;
22172;SDS011;11252;50.596;17.648;2023-02-12T15:41:34;160.93;;;94.57;;
22172;SDS011;11252;50.596;17.648;2023-02-12T15:44:17;93.60;;;47.40;;
22172;SDS011;11252;50.596;17.648;2023-02-12T15:49:39;167.77;;;86.83;;
22172;SDS011;11252;50.596;17.648;2023-02-12T15:54:44;247.93;;;112.87;;
22172;SDS011;11252;50.596;17.648;2023-02-12T15:57:17;252.57;;;118.87;;
22172;SDS011;11252;50.596;17.648;2023-02-12T15:59:51;201.30;;;97.17;;
22172;SDS011;11252;50.596;17.648;2023-02-12T16:02:27;119.80;;;59.13;;
22172;SDS011;11252;50.596;17.648;2023-02-12T16:04:59;65.33;;;35.83;;
22172;SDS011;11252;50.596;17.648;2023-02-12T16:07:29;49.47;;;28.03;;
22172;SDS011;11252;50.596;17.648;2023-02-12T16:10:01;58.00;;;28.70;;
22172;SDS011;11252;50.596;17.648;2023-02-12T16:12:30;51.93;;;27.07;;
22172;SDS011;11252;50.596;17.648;2023-02-12T16:15:02;55.57;;;27.53;;
22172;SDS011;11252;50.596;17.648;2023-02-12T16:17:34;41.83;;;23.20;;
22172;SDS011;11252;50.596;17.648;2023-02-12T16:20:04;42.73;;;23.70;;
22172;SDS011;11252;50.596;17.648;2023-02-12T16:22:38;47.17;;;25.47;;
22172;SDS011;11252;50.596;17.648;2023-02-12T16:25:17;53.80;;;27.87;;
22172;SDS011;11252;50.596;17.648;2023-02-12T16:27:52;43.27;;;24.00;;
22172;SDS011;11252;50.596;17.648;2023-02-12T16:30:34;45.07;;;26.00;;
22172;SDS011;11252;50.596;17.648;2023-02-12T16:36:04;93.87;;;54.53;;
22172;SDS011;11252;50.596;17.648;2023-02-12T16:46:43;104.23;;;62.17;;
22172;SDS011;11252;50.596;17.648;2023-02-12T16:49:20;123.37;;;67.60;;
22172;SDS011;11252;50.596;17.648;2023-02-12T16:51:50;112.40;;;64.17;;
22172;SDS011;11252;50.596;17.648;2023-02-12T16:56:59;164.97;;;96.80;;
22172;SDS011;11252;50.596;17.648;2023-02-12T16:59:27;192.03;;;109.07;;
22172;SDS011;11252;50.596;17.648;2023-02-12T17:01:59;216.60;;;131.50;;
22172;SDS011;11252;50.596;17.648;2023-02-12T17:04:29;258.07;;;146.50;;
22172;SDS011;11252;50.596;17.648;2023-02-12T17:06:57;502.40;;;256.20;;
22172;SDS011;11252;50.596;17.648;2023-02-12T17:09:24;426.70;;;218.57;;
22172;SDS011;11252;50.596;17.648;2023-02-12T17:11:51;299.37;;;158.90;;
22172;SDS011;11252;50.596;17.648;2023-02-12T17:14:19;277.13;;;147.87;;
22172;SDS011;11252;50.596;17.648;2023-02-12T17:16:47;211.90;;;122.47;;
22172;SDS011;11252;50.596;17.648;2023-02-12T17:19:15;222.43;;;128.80;;
22172;SDS011;11252;50.596;17.648;2023-02-12T17:21:43;213.40;;;123.40;;
22172;SDS011;11252;50.596;17.648;2023-02-12T17:24:22;199.10;;;117.00;;
22172;SDS011;11252;50.596;17.648;2023-02-12T17:26:52;163.60;;;94.77;;
22172;SDS011;11252;50.596;17.648;2023-02-12T17:29:21;127.30;;;69.60;;
22172;SDS011;11252;50.596;17.648;2023-02-12T17:31:50;116.00;;;62.37;;
22172;SDS011;11252;50.596;17.648;2023-02-12T17:34:19;119.87;;;60.17;;
22172;SDS011;11252;50.596;17.648;2023-02-12T17:36:48;107.77;;;58.87;;
22172;SDS011;11252;50.596;17.648;2023-02-12T17:39:16;105.53;;;57.50;;
22172;SDS011;11252;50.596;17.648;2023-02-12T17:41:44;104.87;;;51.77;;
22172;SDS011;11252;50.596;17.648;2023-02-12T17:44:12;104.00;;;52.97;;
22172;SDS011;11252;50.596;17.648;2023-02-12T17:46:40;97.10;;;53.30;;
22172;SDS011;11252;50.596;17.648;2023-02-12T17:49:09;315.57;;;193.50;;
22172;SDS011;11252;50.596;17.648;2023-02-12T17:51:36;452.73;;;247.60;;
22172;SDS011;11252;50.596;17.648;2023-02-12T17:54:04;427.10;;;241.20;;
22172;SDS011;11252;50.596;17.648;2023-02-12T17:56:31;189.90;;;106.43;;
22172;SDS011;11252;50.596;17.648;2023-02-12T17:58:58;200.27;;;112.70;;